Hlavní strana
METAR-TAF:

METAR-TAF

Letiště :

Vardø, Norsko

zeměpisná šířka: 70-21N, zeměpisná délka: 031-03E, výška: 12 m

Aktuální stav počasí

Zpráva byla vytvořena před 6 hodinami a 20 minutami, v 21:20 UTC
Jihovýchodní vítr 14 kt
Teplota -1°C
Vlhkost vzduchu 86%
Tlak 1024 hPa
Viditelnost 10 km a více
Oblačno až skoro zataženo ve výšce 1000 ft

METAR: ENSS 172120Z 13014KT 9999 BKN010 M01/M03 Q1024 RMK WIND 500FT 13013KT

Čas: 04:40 (03:40 UTC)


TAF: chybějící

Stav a předpovědi počasí z více než 4 000 letišť (zprávy METAR a TAF).

Červené a žluté tečky na mapě představují dostupné meteorologické stanice.

Když kurzor umístíte na tečku, zobrazí se název stanice.

Pak kliknutím zobrazíte stav a předpověď počasí.

Chcete-li změnit mapu, kliknutím na zelené tlačítko se znaménkem +mapu přiblížíte, kliknutím na zelené tlačítko se znaménkem – mapu oddálíte a kliknutím na zelené šipky přejdete na sousední mapy.


METAR-TAF: